createdAt,value
2019-05-11T00:00:52.484Z,97.10
2019-05-11T00:05:58.434Z,97.20
2019-05-11T00:11:03.651Z,97.20
2019-05-11T00:16:08.727Z,97.40
2019-05-11T00:21:13.717Z,97.90
2019-05-11T00:26:18.770Z,98.20
2019-05-11T00:31:23.928Z,98.00
2019-05-11T00:36:28.898Z,98.10
2019-05-11T00:41:33.911Z,98.40
2019-05-11T00:46:38.855Z,98.60
2019-05-11T00:51:43.839Z,98.90
2019-05-11T00:56:48.903Z,98.90
2019-05-11T01:01:53.924Z,98.60
2019-05-11T01:06:59.036Z,98.70
2019-05-11T01:12:04.118Z,98.60
2019-05-11T01:17:10.277Z,98.80
2019-05-11T01:22:15.499Z,98.80
2019-05-11T01:27:20.558Z,98.70
2019-05-11T01:32:25.658Z,99.70
2019-05-11T01:37:30.748Z,99.20
2019-05-11T01:42:35.803Z,99.50
2019-05-11T01:47:40.936Z,99.50
2019-05-11T01:52:45.854Z,99.90
2019-05-11T01:57:50.951Z,99.90
2019-05-11T02:02:56.023Z,99.90
2019-05-11T02:08:02.621Z,99.90
2019-05-11T02:13:07.731Z,99.90
2019-05-11T02:18:12.882Z,99.90
2019-05-11T02:23:17.859Z,99.90
2019-05-11T02:28:22.838Z,99.90
2019-05-11T02:33:27.885Z,99.90
2019-05-11T02:38:32.859Z,99.90
2019-05-11T02:43:37.955Z,99.90
2019-05-11T02:49:15.757Z,99.90
2019-05-11T02:54:39.332Z,99.90
2019-05-11T02:59:44.371Z,99.90
2019-05-11T03:04:49.325Z,95.90
2019-05-11T03:09:54.430Z,93.20
2019-05-11T03:14:59.391Z,92.30
2019-05-11T03:20:06.044Z,92.30
2019-05-11T03:25:11.161Z,99.40
2019-05-11T03:30:16.378Z,96.20
2019-05-11T03:35:21.447Z,99.90
2019-05-11T03:40:26.524Z,99.90
2019-05-11T03:45:31.649Z,99.90
2019-05-11T03:50:36.744Z,99.90
2019-05-11T03:55:41.819Z,99.90
2019-05-11T04:00:46.864Z,99.90
2019-05-11T04:05:52.014Z,99.90
2019-05-11T04:10:56.965Z,99.90
2019-05-11T04:16:01.951Z,99.90
2019-05-11T04:21:06.991Z,99.90
2019-05-11T04:26:12.015Z,99.90
2019-05-11T04:31:16.963Z,99.90
2019-05-11T04:36:22.013Z,99.90
2019-05-11T04:41:27.059Z,99.90
2019-05-11T04:46:33.184Z,99.90
2019-05-11T04:51:38.197Z,99.90
2019-05-11T04:56:43.387Z,99.90
2019-05-11T05:01:48.429Z,99.90
2019-05-11T05:06:59.922Z,99.90
2019-05-11T05:12:00.046Z,99.90
2019-05-11T05:17:05.106Z,99.90
2019-05-11T05:22:10.087Z,99.90
2019-05-11T05:27:15.135Z,99.90
2019-05-11T05:32:20.111Z,99.40
2019-05-11T05:37:25.285Z,98.90
2019-05-11T05:42:30.323Z,98.50
2019-05-11T05:47:35.381Z,97.70
2019-05-11T05:52:40.324Z,98.40
2019-05-11T05:57:45.299Z,97.20
2019-05-11T06:02:50.435Z,97.20
2019-05-11T06:07:55.388Z,96.80
2019-05-11T06:13:00.414Z,95.90
2019-05-11T06:18:05.610Z,96.10
2019-05-11T06:23:10.667Z,95.80
2019-05-11T06:28:15.715Z,94.60
2019-05-11T06:33:20.769Z,93.60
2019-05-11T06:38:25.713Z,93.10
2019-05-11T06:43:30.735Z,92.50
2019-05-11T06:48:36.239Z,92.20
2019-05-11T06:53:41.429Z,91.50
2019-05-11T06:58:46.394Z,92.10
2019-05-11T07:03:51.367Z,91.70
2019-05-11T07:08:56.419Z,91.20
2019-05-11T07:14:18.697Z,91.50
2019-05-11T07:19:08.028Z,90.50
2019-05-11T07:24:13.118Z,88.70
2019-05-11T07:29:18.351Z,88.00
2019-05-11T07:34:23.408Z,87.10
2019-05-11T07:39:28.659Z,84.00
2019-05-11T07:44:38.298Z,79.70
2019-05-11T07:49:40.204Z,75.20
2019-05-11T07:54:51.824Z,76.00
2019-05-11T07:59:52.076Z,72.10
2019-05-11T08:04:58.642Z,75.30
2019-05-11T08:10:08.205Z,76.40
2019-05-11T08:15:13.994Z,73.20
2019-05-11T08:20:27.903Z,73.80
2019-05-11T08:25:32.918Z,71.20
2019-05-11T08:30:38.243Z,65.00
2019-05-11T08:35:43.320Z,64.40
2019-05-11T08:40:48.636Z,67.30
2019-05-11T08:45:53.595Z,73.00
2019-05-11T08:50:58.563Z,67.10
2019-05-11T08:56:03.660Z,61.70
2019-05-11T09:01:08.960Z,59.70
2019-05-11T09:06:14.086Z,63.60
2019-05-11T09:11:19.338Z,62.30
2019-05-11T09:16:24.276Z,58.40
2019-05-11T09:27:22.430Z,60.10
2019-05-11T09:32:42.130Z,55.40
2019-05-11T09:38:01.921Z,58.30
2019-05-11T09:43:21.923Z,59.20
2019-05-11T09:48:42.649Z,55.50
2019-05-11T09:59:38.503Z,55.70
2019-05-11T10:04:57.680Z,56.00
2019-05-11T10:10:14.938Z,53.20
2019-05-11T10:15:33.913Z,53.20
2019-05-11T10:20:53.939Z,54.70
2019-05-11T10:26:13.721Z,54.50
2019-05-11T10:31:28.462Z,48.80
2019-05-11T10:36:48.672Z,49.80
2019-05-11T10:42:17.862Z,50.60
2019-05-11T10:47:38.229Z,49.90
2019-05-11T11:03:48.543Z,55.80
2019-05-11T11:09:10.217Z,56.40
2019-05-11T11:14:28.870Z,52.60
2019-05-11T11:19:53.701Z,45.80
2019-05-11T11:25:13.189Z,51.40
2019-05-11T11:36:01.087Z,45.00
2019-05-11T11:41:22.411Z,41.90
2019-05-11T11:57:38.600Z,43.20
2019-05-11T12:02:58.800Z,41.70
2019-05-11T12:08:10.670Z,42.70
2019-05-11T12:13:29.869Z,42.90
2019-05-11T12:35:12.477Z,54.00
2019-05-11T12:46:00.743Z,39.60
2019-05-11T12:56:48.743Z,40.50
2019-05-11T13:01:59.215Z,44.20
2019-05-11T13:07:22.782Z,40.50
2019-05-11T13:12:43.093Z,40.90
2019-05-11T13:18:04.837Z,36.60
2019-05-11T13:23:27.638Z,40.90
2019-05-11T13:28:45.476Z,45.80
2019-05-11T13:34:05.670Z,42.00
2019-05-11T13:39:28.398Z,40.30
2019-05-11T13:50:17.731Z,43.20
2019-05-11T13:55:38.583Z,43.90
2019-05-11T14:01:08.095Z,44.80
2019-05-11T14:06:28.752Z,41.10
2019-05-11T14:17:03.471Z,42.80
2019-05-11T14:22:08.793Z,44.50
2019-05-11T14:27:13.801Z,40.30
2019-05-11T14:32:18.783Z,44.50
2019-05-11T14:37:23.867Z,42.90
2019-05-11T14:42:28.989Z,44.30
2019-05-11T14:47:33.941Z,45.20
2019-05-11T14:52:39.221Z,48.00
2019-05-11T14:57:44.233Z,45.80
2019-05-11T15:02:50.059Z,43.40
2019-05-11T15:07:55.203Z,43.50
2019-05-11T15:13:00.243Z,45.40
2019-05-11T15:18:05.372Z,46.10
2019-05-11T15:23:10.413Z,43.60
2019-05-11T15:28:15.519Z,43.80
2019-05-11T15:33:20.467Z,48.70
2019-05-11T15:38:25.519Z,52.30
2019-05-11T15:43:30.589Z,51.00
2019-05-11T15:48:52.810Z,54.00
2019-05-11T15:53:42.272Z,52.10
2019-05-11T15:58:48.712Z,50.60
2019-05-11T16:03:53.827Z,53.30
2019-05-11T16:08:58.843Z,55.10
2019-05-11T16:14:03.963Z,55.40
2019-05-11T16:19:14.707Z,58.20
2019-05-11T16:24:15.643Z,55.70
2019-05-11T16:29:20.620Z,59.00
2019-05-11T16:34:27.632Z,59.00
2019-05-11T16:39:32.353Z,58.30
2019-05-11T16:44:37.851Z,57.60
2019-05-11T16:49:42.951Z,58.30
2019-05-11T16:54:47.931Z,57.00
2019-05-11T16:59:52.915Z,59.50
2019-05-11T17:04:58.162Z,58.50
2019-05-11T17:10:04.590Z,61.90
2019-05-11T17:15:09.894Z,64.30
2019-05-11T17:20:15.183Z,62.00
2019-05-11T17:25:20.161Z,62.30
2019-05-11T17:30:25.172Z,64.70
2019-05-11T17:35:30.147Z,62.40
2019-05-11T17:40:37.669Z,62.60
2019-05-11T17:45:41.918Z,64.00
2019-05-11T17:50:47.032Z,65.50
2019-05-11T17:55:51.979Z,65.80
2019-05-11T18:00:58.838Z,68.80
2019-05-11T18:06:03.867Z,67.70
2019-05-11T18:11:08.935Z,69.20
2019-05-11T18:16:14.055Z,71.70
2019-05-11T18:21:19.086Z,69.70
2019-05-11T18:26:24.020Z,68.20
2019-05-11T18:31:29.071Z,70.50
2019-05-11T18:36:34.015Z,71.20
2019-05-11T18:41:39.273Z,68.20
2019-05-11T18:46:44.515Z,69.00
2019-05-11T18:51:49.563Z,69.40
2019-05-11T18:56:54.607Z,68.60
2019-05-11T19:01:59.656Z,69.20
2019-05-11T19:07:14.275Z,68.40
2019-05-11T19:12:11.440Z,67.90
2019-05-11T19:17:18.165Z,71.00
2019-05-11T19:22:23.237Z,71.80
2019-05-11T19:27:29.258Z,71.10
2019-05-11T19:32:34.291Z,71.50
2019-05-11T19:37:39.619Z,74.00
2019-05-11T19:42:53.753Z,72.60
2019-05-11T19:48:00.128Z,75.20
2019-05-11T19:53:05.187Z,77.20
2019-05-11T19:58:10.286Z,76.40
2019-05-11T20:03:15.338Z,77.90
2019-05-11T20:08:20.589Z,73.90
2019-05-11T20:13:25.605Z,78.20
2019-05-11T20:18:30.704Z,77.90
2019-05-11T20:23:37.563Z,80.90
2019-05-11T20:28:42.398Z,80.40
2019-05-11T20:33:47.755Z,80.40
2019-05-11T20:38:53.878Z,78.90
2019-05-11T20:43:58.929Z,74.10
2019-05-11T20:49:03.972Z,77.10
2019-05-11T20:54:09.083Z,77.60
2019-05-11T20:59:14.211Z,78.40
2019-05-11T21:04:19.182Z,76.40
2019-05-11T21:09:24.222Z,73.10
2019-05-11T21:14:29.279Z,81.30
2019-05-11T21:19:34.290Z,72.70
2019-05-11T21:24:39.202Z,74.80
2019-05-11T21:29:44.159Z,80.70
2019-05-11T21:34:49.175Z,80.70
2019-05-11T21:39:54.226Z,83.70
2019-05-11T21:44:59.179Z,81.10
2019-05-11T21:50:04.692Z,81.90
2019-05-11T21:55:09.977Z,77.50
2019-05-11T22:00:15.327Z,80.20
2019-05-11T22:05:21.966Z,80.70
2019-05-11T22:10:28.351Z,80.20
2019-05-11T22:15:33.714Z,78.10
2019-05-11T22:20:40.915Z,79.70
2019-05-11T22:25:47.552Z,79.10
2019-05-11T22:30:53.133Z,77.30
2019-05-11T22:35:58.885Z,77.50
2019-05-11T22:41:03.946Z,79.60
2019-05-11T22:46:08.995Z,78.10
2019-05-11T22:51:13.995Z,78.40
2019-05-11T22:56:20.069Z,79.20
2019-05-11T23:01:28.275Z,82.60
2019-05-11T23:06:32.959Z,85.90
2019-05-11T23:11:38.045Z,87.60
2019-05-11T23:16:44.178Z,81.10
2019-05-11T23:21:49.520Z,82.70
2019-05-11T23:26:54.491Z,85.00
2019-05-11T23:32:00.599Z,88.50
2019-05-11T23:37:07.868Z,88.30
2019-05-11T23:42:12.343Z,91.60
2019-05-11T23:47:19.999Z,88.90
2019-05-11T23:52:23.974Z,92.00
2019-05-11T23:57:29.098Z,92.70
